Time;durP1;ratioP1;P1;durP2;ratioP2;P2;SDS_P1;SDS_P2;PMS_P1;PMS_P2;Temp;Humidity;BMP_temperature;BMP_pressure;BME280_temperature;BME280_humidity;BME280_pressure;Samples;Min_cycle;Max_cycle;Signal;HPM_P1;HPM_P2
2020/12/22 00:01:16;;;;;;;11.95;4.85;;;;;;;;;;2063294;28;20035;-74
2020/12/22 00:02:42;;;;;;;11.90;4.70;;;;;;;;;;2062261;28;20603;-74
2020/12/22 00:04:01;;;;;;;10.00;5.03;;;;;;;;;;2062985;28;20030;-74
2020/12/22 00:05:20;;;;;;;9.10;4.32;;;;;;;;;;2063924;28;20479;-71
2020/12/22 00:06:39;;;;;;;9.77;4.63;;;;;;;;;;2065183;28;20101;-74
2020/12/22 00:07:58;;;;;;;5.57;4.97;;;;;;;;;;2064782;28;20034;-75
2020/12/22 00:09:16;;;;;;;8.32;4.22;;;;;;;;;;2062854;28;20022;-74
2020/12/22 00:10:35;;;;;;;8.48;4.57;;;;;;;;;;2065808;28;20022;-75
2020/12/22 00:11:54;;;;;;;6.22;4.13;;;;;;;;;;2066132;28;20391;-74
2020/12/22 00:13:13;;;;;;;6.78;4.38;;;;;;;;;;2064719;28;20422;-73
2020/12/22 00:14:32;;;;;;;9.43;4.22;;;;;;;;;;2064321;28;20034;-74
2020/12/22 00:15:50;;;;;;;9.40;4.30;;;;;;;;;;2061615;28;20378;-74
2020/12/22 00:17:10;;;;;;;5.55;4.20;;;;;;;;;;2063800;28;20030;-74
2020/12/22 00:18:29;;;;;;;11.15;4.32;;;;;;;;;;2060963;28;21268;-73
2020/12/22 00:19:48;;;;;;;5.32;4.03;;;;;;;;;;2065275;28;20038;-73
2020/12/22 00:21:07;;;;;;;6.28;3.70;;;;;;;;;;2065452;28;20030;-74
2020/12/22 00:22:28;;;;;;;10.70;4.00;;;;;;;;;;2063423;28;20035;-74
2020/12/22 00:23:47;;;;;;;6.72;3.65;;;;;;;;;;2064065;28;20038;-74
2020/12/22 00:25:06;;;;;;;4.93;3.50;;;;;;;;;;2062662;28;20026;-74
2020/12/22 00:26:25;;;;;;;6.68;3.08;;;;;;;;;;2061656;28;20022;-74
2020/12/22 00:27:43;;;;;;;5.22;3.30;;;;;;;;;;2065507;28;20050;-74
2020/12/22 00:29:02;;;;;;;8.30;3.30;;;;;;;;;;2065720;28;20026;-74
2020/12/22 00:30:21;;;;;;;7.30;3.13;;;;;;;;;;2065386;28;20026;-73
2020/12/22 00:31:40;;;;;;;8.90;2.70;;;;;;;;;;2063562;28;20030;-74
2020/12/22 00:32:59;;;;;;;5.60;3.65;;;;;;;;;;2065043;28;20436;-73
2020/12/22 00:34:18;;;;;;;6.30;3.20;;;;;;;;;;2063987;28;20030;-74
2020/12/22 00:35:37;;;;;;;3.83;2.70;;;;;;;;;;2061438;28;20039;-75
2020/12/22 00:36:56;;;;;;;10.65;2.90;;;;;;;;;;2064107;28;20394;-74
2020/12/22 00:38:14;;;;;;;5.10;2.78;;;;;;;;;;2059199;28;20019;-75
2020/12/22 00:39:33;;;;;;;4.10;2.75;;;;;;;;;;2063919;28;20030;-75
2020/12/22 00:40:52;;;;;;;6.00;2.97;;;;;;;;;;2063501;28;20014;-74
2020/12/22 00:42:11;;;;;;;6.00;2.70;;;;;;;;;;2063098;28;20026;-72
2020/12/22 00:43:30;;;;;;;6.97;2.75;;;;;;;;;;2060694;28;20480;-74
2020/12/22 00:44:49;;;;;;;5.45;2.95;;;;;;;;;;2063025;28;20109;-74
2020/12/22 00:46:08;;;;;;;7.82;2.95;;;;;;;;;;2064628;28;20391;-74
2020/12/22 00:47:27;;;;;;;5.88;2.85;;;;;;;;;;2063618;28;20018;-74
2020/12/22 00:48:47;;;;;;;6.03;2.65;;;;;;;;;;2064696;28;20106;-74
2020/12/22 00:50:05;;;;;;;7.50;3.20;;;;;;;;;;2065362;28;20026;-74
2020/12/22 00:51:26;;;;;;;2.72;2.53;;;;;;;;;;2061906;28;20315;-74
2020/12/22 00:52:45;;;;;;;6.53;2.75;;;;;;;;;;2064628;28;20034;-74
2020/12/22 00:54:04;;;;;;;6.63;2.45;;;;;;;;;;2063002;28;20018;-75
2020/12/22 00:55:23;;;;;;;7.28;2.25;;;;;;;;;;2065027;28;20030;-76
2020/12/22 00:56:46;;;;;;;11.02;3.50;;;;;;;;;;2064915;28;20034;-70
2020/12/22 00:58:05;;;;;;;7.68;2.75;;;;;;;;;;2064474;28;20101;-74
2020/12/22 00:59:23;;;;;;;4.88;2.72;;;;;;;;;;2063185;28;20419;-74
2020/12/22 01:00:42;;;;;;;4.78;2.50;;;;;;;;;;2063804;28;20170;-74
2020/12/22 01:02:05;;;;;;;5.07;3.03;;;;;;;;;;2065111;28;20018;-75
2020/12/22 01:03:24;;;;;;;7.78;2.80;;;;;;;;;;2065087;28;20058;-74
2020/12/22 01:04:43;;;;;;;5.20;2.70;;;;;;;;;;2062367;28;20030;-75
2020/12/22 01:06:02;;;;;;;2.92;2.15;;;;;;;;;;2064597;28;20051;-75
2020/12/22 01:07:20;;;;;;;3.67;2.22;;;;;;;;;;2062439;28;20022;-70
2020/12/22 01:08:39;;;;;;;5.70;2.22;;;;;;;;;;2061236;28;20027;-75
2020/12/22 01:09:58;;;;;;;9.70;2.75;;;;;;;;;;2064427;28;20459;-74
2020/12/22 01:11:17;;;;;;;7.43;2.80;;;;;;;;;;2062536;28;20109;-74
2020/12/22 01:12:36;;;;;;;4.70;2.60;;;;;;;;;;2060083;28;20030;-75
2020/12/22 01:13:55;;;;;;;6.93;2.40;;;;;;;;;;2062638;28;20395;-74
2020/12/22 01:15:14;;;;;;;8.02;2.78;;;;;;;;;;2062487;28;20441;-75
2020/12/22 01:16:33;;;;;;;6.85;2.78;;;;;;;;;;2064177;28;20026;-74
2020/12/22 01:17:52;;;;;;;6.55;3.25;;;;;;;;;;2063143;28;20487;-70
2020/12/22 01:19:11;;;;;;;7.65;2.72;;;;;;;;;;2063143;28;20031;-74
2020/12/22 01:20:30;;;;;;;5.60;2.47;;;;;;;;;;2062822;28;20394;-74
2020/12/22 01:21:53;;;;;;;4.45;2.65;;;;;;;;;;2060991;28;20022;-75
2020/12/22 01:23:12;;;;;;;8.25;2.78;;;;;;;;;;2063127;28;20059;-74
2020/12/22 01:24:30;;;;;;;5.40;2.95;;;;;;;;;;2063574;28;20382;-74
2020/12/22 01:25:49;;;;;;;8.95;2.97;;;;;;;;;;2059650;28;20030;-74
2020/12/22 01:27:08;;;;;;;5.18;2.75;;;;;;;;;;2064777;28;20026;-74
2020/12/22 01:28:29;;;;;;;6.18;3.10;;;;;;;;;;2064333;28;20475;-74
2020/12/22 01:29:48;;;;;;;6.82;2.95;;;;;;;;;;2060845;28;20030;-75
2020/12/22 01:31:06;;;;;;;7.82;2.75;;;;;;;;;;2060397;28;20038;-73
2020/12/22 01:32:25;;;;;;;6.45;3.35;;;;;;;;;;2059700;28;20026;-73
2020/12/22 01:33:44;;;;;;;3.50;2.70;;;;;;;;;;2065357;28;20023;-73
2020/12/22 01:35:03;;;;;;;6.07;3.10;;;;;;;;;;2062780;28;20489;-74
2020/12/22 01:36:22;;;;;;;8.35;2.85;;;;;;;;;;2062801;28;20026;-74
2020/12/22 01:37:41;;;;;;;7.22;3.03;;;;;;;;;;2063692;28;20074;-74
2020/12/22 01:39:00;;;;;;;3.90;2.60;;;;;;;;;;2063596;28;20061;-74
2020/12/22 01:40:19;;;;;;;6.13;3.03;;;;;;;;;;2064700;28;20023;-69
2020/12/22 01:41:38;;;;;;;5.97;2.90;;;;;;;;;;2061729;28;20030;-75
2020/12/22 01:42:57;;;;;;;6.30;2.75;;;;;;;;;;2062715;28;20038;-74
2020/12/22 01:44:16;;;;;;;7.85;3.38;;;;;;;;;;2061241;28;20034;-69
2020/12/22 01:45:36;;;;;;;8.55;3.20;;;;;;;;;;2060636;28;20545;-74
2020/12/22 01:46:54;;;;;;;5.85;2.55;;;;;;;;;;2065333;28;20038;-69
2020/12/22 01:48:13;;;;;;;5.20;3.45;;;;;;;;;;2064467;28;20034;-75
2020/12/22 01:49:32;;;;;;;11.88;3.50;;;;;;;;;;2062974;28;20030;-74
2020/12/22 01:50:51;;;;;;;7.40;2.80;;;;;;;;;;2061566;28;20030;-74
2020/12/22 01:52:10;;;;;;;3.75;2.67;;;;;;;;;;2065281;28;20030;-74
2020/12/22 01:53:29;;;;;;;12.18;3.42;;;;;;;;;;2062380;28;20030;-73
2020/12/22 01:54:48;;;;;;;7.40;3.10;;;;;;;;;;2060051;28;20066;-75
2020/12/22 01:56:07;;;;;;;8.60;3.42;;;;;;;;;;2065285;28;20478;-74
2020/12/22 01:57:25;;;;;;;5.18;3.03;;;;;;;;;;2063609;28;20026;-74
2020/12/22 01:58:44;;;;;;;10.30;3.20;;;;;;;;;;2062342;28;20058;-74
2020/12/22 02:00:04;;;;;;;7.15;3.42;;;;;;;;;;2063672;28;20059;-74
2020/12/22 02:01:23;;;;;;;11.90;3.60;;;;;;;;;;2064142;28;20050;-74
2020/12/22 02:02:42;;;;;;;4.22;3.30;;;;;;;;;;2065330;28;20038;-74
2020/12/22 02:04:02;;;;;;;7.35;2.75;;;;;;;;;;2062780;28;20026;-74
2020/12/22 02:05:21;;;;;;;5.40;3.20;;;;;;;;;;2065091;28;20022;-75
2020/12/22 02:06:40;;;;;;;11.13;3.40;;;;;;;;;;2063314;28;20026;-74
2020/12/22 02:07:59;;;;;;;8.13;3.05;;;;;;;;;;2064023;28;20034;-74
2020/12/22 02:09:18;;;;;;;3.65;2.85;;;;;;;;;;2061803;28;20030;-75
2020/12/22 02:10:47;;;;;;;11.20;3.40;;;;;;;;;;2062816;28;20026;-74
2020/12/22 02:12:06;;;;;;;5.22;3.40;;;;;;;;;;2059686;28;20030;-74
2020/12/22 02:13:25;;;;;;;7.80;3.40;;;;;;;;;;2064375;28;20399;-74
2020/12/22 02:14:44;;;;;;;10.10;3.35;;;;;;;;;;2065645;28;20030;-74
2020/12/22 02:16:03;;;;;;;7.75;3.90;;;;;;;;;;2064692;28;20026;-75
2020/12/22 02:17:22;;;;;;;8.40;3.58;;;;;;;;;;2059003;28;20027;-74
2020/12/22 02:18:41;;;;;;;5.80;3.55;;;;;;;;;;2061064;28;20026;-74
2020/12/22 02:20:00;;;;;;;5.90;3.72;;;;;;;;;;2064444;28;20026;-74
2020/12/22 02:21:20;;;;;;;12.38;3.78;;;;;;;;;;2063195;28;20058;-74
2020/12/22 02:22:39;;;;;;;10.57;3.60;;;;;;;;;;2061048;28;20034;-74
2020/12/22 02:23:58;;;;;;;5.32;3.95;;;;;;;;;;2063160;28;20023;-74
2020/12/22 02:25:17;;;;;;;8.40;4.00;;;;;;;;;;2062473;28;20449;-74
2020/12/22 02:26:36;;;;;;;8.50;3.40;;;;;;;;;;2062386;28;20034;-72
2020/12/22 02:27:55;;;;;;;5.75;4.30;;;;;;;;;;2063742;28;20078;-74
2020/12/22 02:29:14;;;;;;;9.35;3.78;;;;;;;;;;2064456;28;20030;-74
2020/12/22 02:30:33;;;;;;;9.75;3.85;;;;;;;;;;2062733;28;20030;-76
2020/12/22 02:31:52;;;;;;;12.48;4.55;;;;;;;;;;2059390;28;20026;-76
2020/12/22 02:33:11;;;;;;;13.20;3.72;;;;;;;;;;2062941;28;20395;-71
2020/12/22 02:34:30;;;;;;;8.82;3.72;;;;;;;;;;2057946;28;20996;-75
2020/12/22 02:35:49;;;;;;;9.32;3.50;;;;;;;;;;2063529;28;20022;-76
2020/12/22 02:37:08;;;;;;;7.47;3.97;;;;;;;;;;2061548;28;20378;-75
2020/12/22 02:38:27;;;;;;;8.18;3.72;;;;;;;;;;2061224;28;20031;-75
2020/12/22 02:39:46;;;;;;;14.73;5.15;;;;;;;;;;2064349;28;20034;-75
2020/12/22 02:41:05;;;;;;;10.13;3.53;;;;;;;;;;2064003;28;20023;-75
2020/12/22 02:42:25;;;;;;;10.77;4.57;;;;;;;;;;2060889;28;20023;-74
2020/12/22 02:43:44;;;;;;;11.05;4.03;;;;;;;;;;2061383;28;20027;-74
2020/12/22 02:45:02;;;;;;;9.60;3.70;;;;;;;;;;2062720;28;20023;-74
2020/12/22 02:46:21;;;;;;;7.28;3.75;;;;;;;;;;2064196;28;20031;-73
2020/12/22 02:47:40;;;;;;;11.23;4.13;;;;;;;;;;2063770;28;20026;-73
2020/12/22 02:49:01;;;;;;;8.02;3.65;;;;;;;;;;2060997;28;20374;-72
2020/12/22 02:50:20;;;;;;;8.98;3.70;;;;;;;;;;2063522;28;20414;-73
2020/12/22 02:51:39;;;;;;;8.75;3.83;;;;;;;;;;2062169;28;20039;-73
2020/12/22 02:52:58;;;;;;;9.98;3.85;;;;;;;;;;2057956;28;20061;-69
2020/12/22 02:54:17;;;;;;;9.80;3.92;;;;;;;;;;2063523;28;20023;-72
2020/12/22 02:55:36;;;;;;;7.28;3.58;;;;;;;;;;2063662;28;20099;-73
2020/12/22 02:56:55;;;;;;;9.50;3.75;;;;;;;;;;2061869;28;20043;-73
2020/12/22 02:58:14;;;;;;;10.40;3.88;;;;;;;;;;2057590;28;20030;-73
2020/12/22 02:59:33;;;;;;;8.88;3.65;;;;;;;;;;2059988;28;20723;-73
2020/12/22 03:00:52;;;;;;;6.30;4.20;;;;;;;;;;2062202;28;20034;-73
2020/12/22 03:02:11;;;;;;;10.95;3.85;;;;;;;;;;2064498;28;20035;-73
2020/12/22 03:03:29;;;;;;;9.98;3.60;;;;;;;;;;2063965;28;20382;-74
2020/12/22 03:04:49;;;;;;;5.93;3.10;;;;;;;;;;2063232;28;20391;-73
2020/12/22 03:06:07;;;;;;;9.85;3.80;;;;;;;;;;2065581;28;20419;-74
2020/12/22 03:07:26;;;;;;;10.43;3.63;;;;;;;;;;2064779;28;20022;-74
2020/12/22 03:08:45;;;;;;;4.32;2.95;;;;;;;;;;2062165;28;20027;-73
2020/12/22 03:10:08;;;;;;;14.38;3.72;;;;;;;;;;2065581;28;20023;-72
2020/12/22 03:11:27;;;;;;;;;;;;;;;;;;2061906;28;20479;-73
2020/12/22 03:12:47;;;;;;;5.43;3.25;;;;;;;;;;2061640;28;20000;-73
2020/12/22 03:14:05;;;;;;;3.65;3.05;;;;;;;;;;2063364;28;20034;-73
2020/12/22 03:15:24;;;;;;;12.95;4.30;;;;;;;;;;2066149;28;20018;-74
2020/12/22 03:16:43;;;;;;;10.68;3.20;;;;;;;;;;2060063;28;20035;-73
2020/12/22 03:18:04;;;;;;;7.53;3.00;;;;;;;;;;2064212;28;20030;-73
2020/12/22 03:19:23;;;;;;;6.80;3.75;;;;;;;;;;2065709;28;20034;-73
2020/12/22 03:20:42;;;;;;;13.57;3.60;;;;;;;;;;2064110;28;20027;-73
2020/12/22 03:22:01;;;;;;;11.70;3.40;;;;;;;;;;2064181;28;20394;-74
2020/12/22 03:23:19;;;;;;;6.22;3.33;;;;;;;;;;2063963;28;20027;-73
2020/12/22 03:24:38;;;;;;;5.32;3.35;;;;;;;;;;2064709;28;20457;-73
2020/12/22 03:25:57;;;;;;;8.60;3.75;;;;;;;;;;2063910;28;20026;-73
2020/12/22 03:27:16;;;;;;;6.38;3.55;;;;;;;;;;2065010;28;20034;-73
2020/12/22 03:28:35;;;;;;;8.82;3.38;;;;;;;;;;2064530;28;20030;-74
2020/12/22 03:29:54;;;;;;;13.18;3.53;;;;;;;;;;2063920;28;20038;-73
2020/12/22 03:31:13;;;;;;;10.85;3.40;;;;;;;;;;2065279;28;20031;-73
2020/12/22 03:32:32;;;;;;;6.25;3.33;;;;;;;;;;2066690;28;20042;-75
2020/12/22 03:33:51;;;;;;;7.75;3.45;;;;;;;;;;2064136;28;20034;-74
2020/12/22 03:35:10;;;;;;;9.65;3.58;;;;;;;;;;2065873;28;20034;-74
2020/12/22 03:36:29;;;;;;;6.03;3.38;;;;;;;;;;2066057;28;20027;-73
2020/12/22 03:37:48;;;;;;;13.45;3.83;;;;;;;;;;2066501;28;20411;-74
2020/12/22 03:39:07;;;;;;;10.48;3.83;;;;;;;;;;2065443;28;20487;-73
2020/12/22 03:40:26;;;;;;;7.10;4.00;;;;;;;;;;2064557;28;20105;-73
2020/12/22 03:41:45;;;;;;;9.25;3.75;;;;;;;;;;2065571;28;20023;-74
2020/12/22 03:43:04;;;;;;;9.98;4.38;;;;;;;;;;2066403;28;20039;-72
2020/12/22 03:44:23;;;;;;;5.43;3.17;;;;;;;;;;2065279;28;20520;-73
2020/12/22 03:45:42;;;;;;;12.63;4.10;;;;;;;;;;2064778;28;20030;-73
2020/12/22 03:47:01;;;;;;;6.80;3.60;;;;;;;;;;2061602;28;20035;-73
2020/12/22 03:48:20;;;;;;;7.65;3.85;;;;;;;;;;2062725;28;20550;-72
2020/12/22 03:49:39;;;;;;;11.77;4.32;;;;;;;;;;2066304;28;20463;-73
2020/12/22 03:50:57;;;;;;;12.80;4.18;;;;;;;;;;2057942;28;20026;-74
2020/12/22 03:52:16;;;;;;;7.40;4.05;;;;;;;;;;2061888;28;20022;-74
2020/12/22 03:53:35;;;;;;;5.97;3.63;;;;;;;;;;2063788;28;20022;-73
2020/12/22 03:54:54;;;;;;;12.30;3.65;;;;;;;;;;2063290;28;20026;-74
2020/12/22 03:56:13;;;;;;;9.93;4.05;;;;;;;;;;2066405;28;20038;-73
2020/12/22 03:57:32;;;;;;;10.60;4.00;;;;;;;;;;2065447;28;20026;-74
2020/12/22 03:58:51;;;;;;;8.10;3.83;;;;;;;;;;2058913;28;20034;-74
2020/12/22 04:00:12;;;;;;;8.27;4.30;;;;;;;;;;2062517;28;20027;-74
2020/12/22 04:01:31;;;;;;;8.60;3.75;;;;;;;;;;2065366;28;20030;-74
2020/12/22 04:02:50;;;;;;;6.20;3.80;;;;;;;;;;2064793;28;20038;-74
2020/12/22 04:04:09;;;;;;;11.27;4.05;;;;;;;;;;2065314;28;20026;-75
2020/12/22 04:05:28;;;;;;;5.72;3.47;;;;;;;;;;2058709;28;20031;-73
2020/12/22 04:06:47;;;;;;;8.85;4.22;;;;;;;;;;2065881;28;20023;-74
2020/12/22 04:08:06;;;;;;;8.80;3.45;;;;;;;;;;2063825;28;20030;-75
2020/12/22 04:09:25;;;;;;;7.88;3.72;;;;;;;;;;2062895;28;20035;-74
2020/12/22 04:10:44;;;;;;;9.27;3.80;;;;;;;;;;2063775;28;20479;-74
2020/12/22 04:12:03;;;;;;;10.60;3.58;;;;;;;;;;2062142;28;20044;-74
2020/12/22 04:13:22;;;;;;;9.27;4.07;;;;;;;;;;2065026;28;20058;-74
2020/12/22 04:14:41;;;;;;;10.32;3.95;;;;;;;;;;2063972;28;20022;-74
2020/12/22 04:16:02;;;;;;;8.57;3.60;;;;;;;;;;2064773;28;20379;-74
2020/12/22 04:17:21;;;;;;;10.30;4.00;;;;;;;;;;2064731;28;20062;-73
2020/12/22 04:18:40;;;;;;;7.60;4.75;;;;;;;;;;2065175;28;20022;-74
2020/12/22 04:19:59;;;;;;;11.32;3.40;;;;;;;;;;2065256;28;20022;-75
2020/12/22 04:21:18;;;;;;;7.38;3.63;;;;;;;;;;2063854;28;20046;-75
2020/12/22 04:22:36;;;;;;;10.05;3.75;;;;;;;;;;2061745;28;20113;-74
2020/12/22 04:23:56;;;;;;;7.28;3.65;;;;;;;;;;2064864;28;20061;-70
2020/12/22 04:25:15;;;;;;;8.00;3.20;;;;;;;;;;2063847;28;20034;-74
2020/12/22 04:26:34;;;;;;;10.63;4.35;;;;;;;;;;2065185;28;20098;-74
2020/12/22 04:27:53;;;;;;;13.05;4.20;;;;;;;;;;2059610;28;20050;-72
2020/12/22 04:29:12;;;;;;;7.80;3.58;;;;;;;;;;2059891;28;20038;-74
2020/12/22 04:30:31;;;;;;;10.57;3.78;;;;;;;;;;2065079;28;20471;-74
2020/12/22 04:31:50;;;;;;;6.93;3.08;;;;;;;;;;2062431;28;20054;-75
2020/12/22 04:33:09;;;;;;;7.22;3.70;;;;;;;;;;2062252;28;20335;-74
2020/12/22 04:34:28;;;;;;;7.65;3.72;;;;;;;;;;2063683;28;20031;-72
2020/12/22 04:35:47;;;;;;;12.40;3.42;;;;;;;;;;2060510;28;20061;-74
2020/12/22 04:37:06;;;;;;;6.88;3.20;;;;;;;;;;2062668;28;20386;-74
2020/12/22 04:38:25;;;;;;;10.80;4.53;;;;;;;;;;2062116;28;21024;-74
2020/12/22 04:39:44;;;;;;;7.95;3.38;;;;;;;;;;2062734;28;20118;-73
2020/12/22 04:41:05;;;;;;;5.65;3.55;;;;;;;;;;2064147;28;20026;-73
2020/12/22 04:42:24;;;;;;;12.45;4.03;;;;;;;;;;2064799;28;20019;-74
2020/12/22 04:43:44;;;;;;;9.20;3.92;;;;;;;;;;2063993;28;20514;-74
2020/12/22 04:45:03;;;;;;;5.95;3.10;;;;;;;;;;2059575;28;20026;-74
2020/12/22 04:46:22;;;;;;;9.55;3.60;;;;;;;;;;2066780;28;20026;-76
2020/12/22 04:47:42;;;;;;;7.43;3.70;;;;;;;;;;2062884;28;20062;-75
2020/12/22 04:49:01;;;;;;;7.03;3.40;;;;;;;;;;2062770;28;20018;-73
2020/12/22 04:50:20;;;;;;;3.85;2.95;;;;;;;;;;2059860;28;20110;-75
2020/12/22 04:51:41;;;;;;;11.32;3.55;;;;;;;;;;2063501;28;20031;-70
2020/12/22 04:53:00;;;;;;;9.35;3.22;;;;;;;;;;2064394;28;20050;-74
2020/12/22 04:54:19;;;;;;;8.40;3.20;;;;;;;;;;2063060;28;20118;-74
2020/12/22 04:55:38;;;;;;;6.35;3.97;;;;;;;;;;2061626;28;20030;-75
2020/12/22 04:56:58;;;;;;;7.57;3.20;;;;;;;;;;2063472;28;20054;-75
2020/12/22 04:58:17;;;;;;;8.82;3.92;;;;;;;;;;2065309;28;20034;-75
2020/12/22 04:59:37;;;;;;;7.35;3.17;;;;;;;;;;2064920;28;20038;-74
2020/12/22 05:00:56;;;;;;;9.27;3.75;;;;;;;;;;2060882;28;20026;-75
2020/12/22 05:02:15;;;;;;;6.90;4.35;;;;;;;;;;2060264;28;20030;-74
2020/12/22 05:03:34;;;;;;;7.60;3.47;;;;;;;;;;2057998;28;20031;-74
2020/12/22 05:04:53;;;;;;;12.63;3.75;;;;;;;;;;2061994;28;20336;-74
2020/12/22 05:06:11;;;;;;;8.63;4.40;;;;;;;;;;2060449;28;20114;-74
2020/12/22 05:07:30;;;;;;;12.43;4.00;;;;;;;;;;2062189;28;20031;-74
2020/12/22 05:08:49;;;;;;;9.10;4.05;;;;;;;;;;2059512;28;20793;-74
2020/12/22 05:10:09;;;;;;;19.65;4.60;;;;;;;;;;2055082;28;20031;-74
2020/12/22 05:11:28;;;;;;;8.55;3.88;;;;;;;;;;2064670;28;20042;-75
2020/12/22 05:12:47;;;;;;;13.02;4.00;;;;;;;;;;2062745;28;20487;-74
2020/12/22 05:14:06;;;;;;;8.45;3.97;;;;;;;;;;2063189;28;20042;-74
2020/12/22 05:15:26;;;;;;;7.80;5.30;;;;;;;;;;2063426;28;20027;-75
2020/12/22 05:16:46;;;;;;;8.02;3.50;;;;;;;;;;2064390;28;20090;-74
2020/12/22 05:18:05;;;;;;;11.32;3.55;;;;;;;;;;2064581;28;20026;-74
2020/12/22 05:19:25;;;;;;;8.63;3.58;;;;;;;;;;2063871;28;20026;-75
2020/12/22 05:20:45;;;;;;;10.75;3.45;;;;;;;;;;2059765;28;20030;-74
2020/12/22 05:22:06;;;;;;;14.05;3.67;;;;;;;;;;2061194;28;20031;-70
2020/12/22 05:23:25;;;;;;;12.02;3.60;;;;;;;;;;2063123;28;20030;-74
2020/12/22 05:24:45;;;;;;;9.25;4.03;;;;;;;;;;2063892;28;20348;-72
2020/12/22 05:26:06;;;;;;;6.45;3.55;;;;;;;;;;2059347;28;20039;-74
2020/12/22 05:27:24;;;;;;;4.30;3.58;;;;;;;;;;2060711;28;20047;-74
2020/12/22 05:28:43;;;;;;;10.32;3.78;;;;;;;;;;2060206;28;20491;-76
2020/12/22 05:30:04;;;;;;;6.85;3.45;;;;;;;;;;2060033;28;20113;-74
2020/12/22 05:31:23;;;;;;;4.22;3.53;;;;;;;;;;2063833;28;20058;-73
2020/12/22 05:32:42;;;;;;;8.10;4.00;;;;;;;;;;2062845;28;20042;-73
2020/12/22 05:34:01;;;;;;;8.00;3.83;;;;;;;;;;2063082;28;20030;-75
2020/12/22 05:35:20;;;;;;;8.57;3.75;;;;;;;;;;2062599;28;20026;-75
2020/12/22 05:36:40;;;;;;;7.00;3.75;;;;;;;;;;2060235;28;20031;-74
2020/12/22 05:38:01;;;;;;;5.63;3.53;;;;;;;;;;2062422;28;20023;-74
2020/12/22 05:39:19;;;;;;;5.63;3.75;;;;;;;;;;2061730;28;20067;-74
2020/12/22 05:40:39;;;;;;;9.57;3.90;;;;;;;;;;2064089;28;20031;-74
2020/12/22 05:41:58;;;;;;;7.90;3.80;;;;;;;;;;2063710;28;20026;-74
2020/12/22 05:43:18;;;;;;;6.45;3.83;;;;;;;;;;2064392;28;20042;-74
2020/12/22 05:44:40;;;;;;;10.02;4.13;;;;;;;;;;2061842;28;20066;-73
2020/12/22 05:46:00;;;;;;;16.73;4.40;;;;;;;;;;2061822;28;20460;-73
2020/12/22 05:47:20;;;;;;;8.00;4.13;;;;;;;;;;2060077;28;20034;-74
2020/12/22 05:48:39;;;;;;;7.18;4.03;;;;;;;;;;2062465;28;20113;-71
2020/12/22 05:49:58;;;;;;;10.90;3.92;;;;;;;;;;2062846;28;20471;-73
2020/12/22 05:51:17;;;;;;;9.25;4.00;;;;;;;;;;2060563;28;20031;-71
2020/12/22 05:52:40;;;;;;;6.72;3.90;;;;;;;;;;2056457;28;20135;-70
2020/12/22 05:54:04;;;;;;;14.93;4.38;;;;;;;;;;2060730;28;20022;-70
2020/12/22 05:55:30;;;;;;;9.85;4.15;;;;;;;;;;2065132;28;20200;-70
2020/12/22 05:56:49;;;;;;;9.82;3.38;;;;;;;;;;2063671;28;20102;-71
2020/12/22 05:58:11;;;;;;;5.97;3.33;;;;;;;;;;2061795;28;20026;-70
2020/12/22 05:59:30;;;;;;;10.38;3.10;;;;;;;;;;2062016;28;20383;-70
2020/12/22 06:00:49;;;;;;;16.15;3.38;;;;;;;;;;2064611;28;20117;-70
2020/12/22 06:02:09;;;;;;;11.07;4.30;;;;;;;;;;2060732;28;20030;-71
2020/12/22 06:03:28;;;;;;;9.68;3.22;;;;;;;;;;2064216;28;20518;-71
2020/12/22 06:04:47;;;;;;;8.05;3.60;;;;;;;;;;2058436;28;20031;-71
2020/12/22 06:06:08;;;;;;;7.22;3.60;;;;;;;;;;2064656;28;20034;-71
2020/12/22 06:07:28;;;;;;;6.43;3.90;;;;;;;;;;2063384;28;20478;-71
2020/12/22 06:08:49;;;;;;;9.80;3.45;;;;;;;;;;2061534;28;20408;-71
2020/12/22 06:10:07;;;;;;;8.90;3.63;;;;;;;;;;2063283;28;20030;-71
2020/12/22 06:11:34;;;;;;;8.85;3.47;;;;;;;;;;2062553;28;20038;-71
2020/12/22 06:12:56;;;;;;;8.80;3.20;;;;;;;;;;2058787;28;20023;-70
2020/12/22 06:14:23;;;;;;;7.45;3.50;;;;;;;;;;2059390;28;20023;-70
2020/12/22 06:15:42;;;;;;;6.45;3.28;;;;;;;;;;2063490;28;20038;-70
2020/12/22 06:17:05;;;;;;;7.28;3.35;;;;;;;;;;2064433;28;20121;-71
2020/12/22 06:18:24;;;;;;;10.38;3.30;;;;;;;;;;2063858;28;20022;-70
2020/12/22 06:19:44;;;;;;;9.63;3.75;;;;;;;;;;2061688;28;20233;-70
2020/12/22 06:21:02;;;;;;;12.55;3.75;;;;;;;;;;2060951;28;20461;-72
2020/12/22 06:22:21;;;;;;;8.57;3.60;;;;;;;;;;2064117;28;20034;-71
2020/12/22 06:23:40;;;;;;;8.85;3.40;;;;;;;;;;2063407;28;20031;-74
2020/12/22 06:24:59;;;;;;;9.00;3.38;;;;;;;;;;2061925;28;20987;-73
2020/12/22 06:26:18;;;;;;;12.95;3.10;;;;;;;;;;2061806;28;20382;-72
2020/12/22 06:27:37;;;;;;;10.13;3.40;;;;;;;;;;2062871;28;20125;-75
2020/12/22 06:28:56;;;;;;;7.15;3.25;;;;;;;;;;2063953;28;20082;-74
2020/12/22 06:30:16;;;;;;;9.60;3.47;;;;;;;;;;2063204;28;20463;-74
2020/12/22 06:31:37;;;;;;;5.82;2.63;;;;;;;;;;2058338;28;20034;-74
2020/12/22 06:33:15;;;;;;;7.97;3.67;;;;;;;;;;2061344;28;21604;-73
2020/12/22 06:34:34;;;;;;;10.70;3.03;;;;;;;;;;2061036;28;20030;-74
2020/12/22 06:35:56;;;;;;;9.43;2.97;;;;;;;;;;2059800;28;20027;-74
2020/12/22 06:37:15;;;;;;;7.57;2.72;;;;;;;;;;2065460;28;20370;-74
2020/12/22 06:38:43;;;;;;;7.00;3.20;;;;;;;;;;2061402;28;20031;-75
2020/12/22 06:40:02;;;;;;;7.28;2.88;;;;;;;;;;2060162;28;20058;-74
2020/12/22 06:41:40;;;;;;;4.75;3.30;;;;;;;;;;2064527;28;20106;-74
2020/12/22 06:42:59;;;;;;;7.38;3.45;;;;;;;;;;2064203;28;20031;-72
2020/12/22 06:44:25;;;;;;;10.73;3.42;;;;;;;;;;2056097;28;20031;-72
2020/12/22 06:45:44;;;;;;;7.55;2.60;;;;;;;;;;2058248;28;20042;-73
2020/12/22 06:47:04;;;;;;;8.40;3.60;;;;;;;;;;2062549;28;20181;-72
2020/12/22 06:48:23;;;;;;;5.68;3.00;;;;;;;;;;2062049;28;20432;-72
2020/12/22 06:49:48;;;;;;;9.75;2.97;;;;;;;;;;2065045;28;20042;-73
2020/12/22 06:51:20;;;;;;;9.85;3.35;;;;;;;;;;2060460;28;20030;-73
2020/12/22 06:52:44;;;;;;;6.47;2.58;;;;;;;;;;2064048;28;20406;-72
2020/12/22 06:54:24;;;;;;;5.82;2.92;;;;;;;;;;2063296;28;20026;-74
2020/12/22 06:55:50;;;;;;;6.43;3.05;;;;;;;;;;2055452;28;20130;-74
2020/12/22 06:57:08;;;;;;;15.00;4.70;;;;;;;;;;2061091;28;20022;-72
2020/12/22 06:58:40;;;;;;;7.70;3.00;;;;;;;;;;2059720;28;20038;-72
2020/12/22 06:59:59;;;;;;;8.68;3.60;;;;;;;;;;2060080;28;20383;-72
2020/12/22 07:01:24;;;;;;;7.45;3.30;;;;;;;;;;2059103;28;20054;-70
2020/12/22 07:02:44;;;;;;;9.00;3.15;;;;;;;;;;2065008;28;20034;-71
2020/12/22 07:04:13;;;;;;;6.45;3.03;;;;;;;;;;2065775;28;20501;-71
2020/12/22 07:05:39;;;;;;;10.85;3.42;;;;;;;;;;2062418;28;20035;-72
2020/12/22 07:06:59;;;;;;;6.78;3.30;;;;;;;;;;2049766;28;20031;-71
2020/12/22 07:08:18;;;;;;;8.20;3.35;;;;;;;;;;2059371;28;20042;-72
2020/12/22 07:09:38;;;;;;;5.68;3.13;;;;;;;;;;2061451;28;20125;-72
2020/12/22 07:10:57;;;;;;;14.75;4.68;;;;;;;;;;2062447;28;20022;-72
2020/12/22 07:12:20;;;;;;;7.53;4.03;;;;;;;;;;2060727;28;20042;-72
2020/12/22 07:13:39;;;;;;;8.50;3.28;;;;;;;;;;2067883;28;20079;-72
2020/12/22 07:14:58;;;;;;;8.98;3.10;;;;;;;;;;2059935;28;20031;-72
2020/12/22 07:16:17;;;;;;;13.20;3.00;;;;;;;;;;2062508;28;20027;-72
2020/12/22 07:17:36;;;;;;;10.93;3.42;;;;;;;;;;2062691;28;20031;-72
2020/12/22 07:18:57;;;;;;;6.65;3.28;;;;;;;;;;2058881;28;20035;-71
2020/12/22 07:20:16;;;;;;;7.50;3.65;;;;;;;;;;2060591;28;20494;-72
2020/12/22 07:21:37;;;;;;;12.65;4.07;;;;;;;;;;2066025;28;20493;-73
2020/12/22 07:22:56;;;;;;;10.63;3.55;;;;;;;;;;2062598;28;20027;-72
2020/12/22 07:24:16;;;;;;;10.40;4.03;;;;;;;;;;2062199;28;20018;-73
2020/12/22 07:25:35;;;;;;;15.45;4.57;;;;;;;;;;2061132;28;20117;-73
2020/12/22 07:26:54;;;;;;;8.85;3.90;;;;;;;;;;2064631;28;20030;-74
2020/12/22 07:28:13;;;;;;;10.82;3.90;;;;;;;;;;2066027;28;20046;-73
2020/12/22 07:29:36;;;;;;;11.85;4.35;;;;;;;;;;2060875;28;20039;-72
2020/12/22 07:30:55;;;;;;;9.55;4.45;;;;;;;;;;2063463;28;20479;-73
2020/12/22 07:32:14;;;;;;;7.93;3.70;;;;;;;;;;2061052;28;20121;-73
2020/12/22 07:33:33;;;;;;;7.28;3.42;;;;;;;;;;2063709;28;20030;-73
2020/12/22 07:34:51;;;;;;;14.57;4.22;;;;;;;;;;2066299;28;20386;-72
2020/12/22 07:36:10;;;;;;;8.50;4.10;;;;;;;;;;2060781;28;20027;-72
2020/12/22 07:37:32;;;;;;;9.82;3.53;;;;;;;;;;2060783;28;20030;-73
2020/12/22 07:38:51;;;;;;;8.57;4.00;;;;;;;;;;2062813;28;20031;-72
2020/12/22 07:40:10;;;;;;;9.35;3.90;;;;;;;;;;2062307;28;20117;-74
2020/12/22 07:41:29;;;;;;;10.68;4.18;;;;;;;;;;2062410;28;20018;-74
2020/12/22 07:42:48;;;;;;;6.13;3.75;;;;;;;;;;2061996;28;20031;-74
2020/12/22 07:44:11;;;;;;;18.90;4.28;;;;;;;;;;2062486;28;20018;-73
2020/12/22 07:45:29;;;;;;;10.52;4.60;;;;;;;;;;2061691;28;20031;-72
2020/12/22 07:46:52;;;;;;;8.77;3.88;;;;;;;;;;2065234;28;20530;-73
2020/12/22 07:48:11;;;;;;;12.25;4.47;;;;;;;;;;2064812;28;20054;-73
2020/12/22 07:49:30;;;;;;;6.00;3.95;;;;;;;;;;2061564;28;20034;-73
2020/12/22 07:50:52;;;;;;;14.75;5.10;;;;;;;;;;2060423;28;20030;-72
2020/12/22 07:52:16;;;;;;;7.82;4.03;;;;;;;;;;2065830;28;20031;-72
2020/12/22 07:53:35;;;;;;;8.20;4.20;;;;;;;;;;2067948;28;20038;-72
2020/12/22 07:54:57;;;;;;;13.18;5.00;;;;;;;;;;2062080;28;20022;-71
2020/12/22 07:56:16;;;;;;;11.55;4.50;;;;;;;;;;2064539;28;20027;-72
2020/12/22 07:57:36;;;;;;;13.25;5.25;;;;;;;;;;2061841;28;20051;-72